気象予報士の航空気象 サクラ散り始める

*All archives   *Admin

2010.04.06 (Tue)

サクラ散り始める

RJTT 060600Z 18015KT 9999 FEW030 19/09 Q1011 RMK 1CU030 A2987


RJAA 060600Z 17010KT 9999 FEW040 SCT/// 19/07 Q1011 NOSIG RMK 1CU040 A2987


気温がぐんぐん上昇、関東周辺は20度を超えたところが多かったようです。


桜も一気に満開。


見ごろです。


週末にお花見にと考えたいところですが、明日は雨。


風も出そうです。


散り始めていきそうです。


 
ブログランキングに参加しています。
にほんブログ村 環境ブログ 天気・気象学へ
にほんブログ村
応援クリックをおねがします。


以下、アフィリエイトサイトです。




スポンサーサイト
19:30  |  時事  |  TB(0)  |  CM(0)  |  EDIT  |  Top↑

コメントを投稿する


 管理者だけに表示  (非公開コメント投稿可能)

▲PageTop

この記事のトラックバックURL

→http://weathereucalyptus.blog115.fc2.com/tb.php/446-da6999a6
この記事にトラックバックする(FC2ブログユーザー)

この記事へのトラックバック

▲PageTop

 | BLOGTOP |